Lake Delton, Wisconsin
Current Conditions -  °F | °C
As of 10:10 AM on Sunday 25 Jan 2015 (Local Time) from KDLL Reporting Station
Overcast Overcast  
Wind Chill:   Ceiling: 1800
Heat Index: 21°   Visibility: 10mi
Dew Point: 15°   Wind: 15mph
Humidity: 77%   Direction: 40°NE
Pressure: 29.94"   Gusts: 20mph
Location:  43.6°N, 89.79°W
Report Text: KDLL 251610Z AUTO 04013G17KT 10SM OVC018 M06/M10 A2994 RMK AO2 T10621097
Loading
Personal Weather Stations






























Interactive Weather Map New forecast layout! Learn more

10-Day Weather Forecast

Advertisements
Track Severe Weather on mobile